Time;durP1;ratioP1;P1;durP2;ratioP2;P2;SDS_P1;SDS_P2;PMS_P1;PMS_P2;Temp;Humidity;BMP_temperature;BMP_pressure;BME280_temperature;BME280_humidity;BME280_pressure;Samples;Min_cycle;Max_cycle;Signal;HPM_P1;HPM_P2
2022/05/10 00:00:57;;;;;;;16.02;14.82;;;12.60;99.90;;;13.46;82.95;98509.81;5189577;28;20332;-56
2022/05/10 00:03:33;;;;;;;15.05;13.85;;;12.60;99.90;;;13.22;82.81;98506.72;5239153;27;20229;-54
2022/05/10 00:06:09;;;;;;;15.93;14.77;;;12.40;99.90;;;13.12;82.67;98500.94;5191271;28;20571;-52
2022/05/10 00:08:43;;;;;;;15.55;14.45;;;12.30;99.90;;;13.19;83.21;98498.84;5197511;28;20692;-52
2022/05/10 00:11:16;;;;;;;15.55;14.45;;;12.30;99.90;;;13.22;83.88;98498.09;5197879;27;20251;-57
2022/05/10 00:13:49;;;;;;;15.82;14.63;;;12.40;99.90;;;13.23;83.52;98499.88;5191383;27;20198;-53
2022/05/10 00:16:22;;;;;;;15.15;14.05;;;12.30;99.90;;;13.29;83.29;98502.84;5189698;28;20206;-51
2022/05/10 00:18:55;;;;;;;16.25;15.05;;;12.30;99.90;;;13.23;83.42;98494.75;5194552;28;20218;-55
2022/05/10 00:21:30;;;;;;;15.73;14.52;;;12.30;99.90;;;13.20;83.00;98504.84;5194119;28;20222;-50
2022/05/10 00:24:03;;;;;;;16.67;15.32;;;12.30;99.90;;;13.17;83.00;98497.84;5225959;27;20675;-50
2022/05/10 00:26:37;;;;;;;16.48;15.27;;;12.30;99.90;;;13.16;83.67;98497.75;5198174;28;20661;-53
2022/05/10 00:29:10;;;;;;;16.05;14.82;;;12.30;99.90;;;13.18;83.56;98497.03;5204355;27;20210;-50
2022/05/10 00:31:43;;;;;;;16.92;15.73;;;12.30;99.90;;;13.12;83.79;98504.41;5193453;28;20244;-59
2022/05/10 00:34:18;;;;;;;16.48;15.27;;;12.20;99.90;;;13.10;84.36;98500.84;5196077;28;20624;-56
2022/05/10 00:36:52;;;;;;;15.63;14.35;;;12.20;99.90;;;13.05;84.07;98499.72;5192688;28;20208;-59
2022/05/10 00:39:25;;;;;;;15.90;14.75;;;12.20;99.90;;;12.99;83.28;98496.78;5193100;28;20694;-57
2022/05/10 00:42:05;;;;;;;15.93;14.82;;;12.10;99.90;;;12.99;83.64;98500.25;5203616;27;20295;-58
2022/05/10 00:44:45;;;;;;;16.58;15.43;;;12.10;99.90;;;12.99;84.66;98500.25;5199350;28;20671;-57
2022/05/10 00:47:24;;;;;;;16.67;15.38;;;12.20;99.90;;;12.91;83.99;98492.91;5187618;28;20291;-58
2022/05/10 00:50:02;;;;;;;16.73;15.52;;;12.10;99.90;;;12.88;84.75;98495.28;5191956;28;20218;-59
2022/05/10 00:52:48;;;;;;;17.05;15.75;;;12.00;99.90;;;12.64;84.92;98490.47;5198191;28;20194;-57
2022/05/10 00:55:27;;;;;;;16.15;14.98;;;11.80;99.90;;;12.66;86.02;98488.91;5193949;28;20312;-58
2022/05/10 00:58:06;;;;;;;17.70;16.40;;;11.80;99.90;;;12.68;85.95;98489.00;5193805;28;20216;-58
2022/05/10 01:00:40;;;;;;;17.70;16.40;;;11.90;99.90;;;12.73;85.37;98482.44;5195410;28;20242;-58
2022/05/10 01:03:22;;;;;;;16.70;15.45;;;11.90;99.90;;;12.78;85.45;98475.91;5218697;27;20222;-58
2022/05/10 01:06:03;;;;;;;17.25;16.00;;;11.90;99.90;;;12.83;85.78;98477.06;5199183;28;20202;-59
2022/05/10 01:08:44;;;;;;;17.55;16.20;;;12.00;99.90;;;12.77;86.30;98479.28;5200351;27;20550;-58
2022/05/10 01:11:22;;;;;;;16.90;15.60;;;12.00;99.90;;;12.77;86.41;98469.00;5193674;28;20775;-57
2022/05/10 01:14:01;;;;;;;18.13;16.83;;;12.00;99.90;;;12.69;85.78;98478.81;5196488;28;20190;-59
2022/05/10 01:16:34;;;;;;;16.75;15.55;;;11.90;99.90;;;12.66;85.70;98480.31;5190916;28;20295;-58
2022/05/10 01:19:07;;;;;;;17.08;15.75;;;11.80;99.90;;;12.66;86.09;98473.50;5194171;28;20206;-55
2022/05/10 01:21:56;;;;;;;18.08;16.60;;;11.80;99.90;;;12.69;86.97;98472.81;5195293;28;20198;-58
2022/05/10 01:24:56;;;;;;;18.15;16.80;;;11.90;99.90;;;12.55;86.51;98465.19;5190608;28;20208;-57
2022/05/10 01:27:44;;;;;;;17.50;16.20;;;11.80;99.90;;;12.51;86.42;98459.81;5203276;28;20204;-57
2022/05/10 01:30:21;;;;;;;17.17;15.98;;;11.70;99.90;;;12.56;87.04;98466.97;5188104;28;20229;-55
2022/05/10 01:33:32;;;;;;;17.10;15.80;;;11.70;99.90;;;12.55;87.39;98469.44;5191088;28;20196;-58
2022/05/10 01:36:24;;;;;;;18.15;16.85;;;11.80;99.90;;;12.47;86.51;98462.97;5190633;28;20612;-58
2022/05/10 01:39:04;;;;;;;16.80;15.50;;;11.60;99.90;;;12.52;86.89;98467.56;5201451;28;20195;-54
2022/05/10 01:41:48;;;;;;;16.35;15.15;;;11.70;99.90;;;12.51;86.94;98454.66;5189375;28;20214;-52
2022/05/10 01:44:30;;;;;;;16.35;15.25;;;11.70;99.90;;;12.49;86.73;98456.25;5198261;28;20629;-52
2022/05/10 01:47:14;;;;;;;16.15;15.02;;;11.70;99.90;;;12.47;86.40;98456.16;5192405;28;20708;-52
2022/05/10 01:49:51;;;;;;;17.17;15.80;;;11.60;99.90;;;12.45;86.44;98451.72;5198562;28;20664;-53
2022/05/10 01:52:31;;;;;;;18.33;16.80;;;11.60;99.90;;;12.44;86.92;98450.84;5195844;28;20219;-54
2022/05/10 01:55:20;;;;;;;17.52;15.98;;;11.60;99.90;;;12.47;87.13;98456.16;5225999;27;20674;-55
2022/05/10 01:57:54;;;;;;;17.15;15.85;;;11.60;99.90;;;12.44;87.46;98450.84;5188377;28;20229;-54
2022/05/10 02:00:29;;;;;;;18.95;17.45;;;11.60;99.90;;;12.45;88.09;98447.50;5187258;28;20228;-58
2022/05/10 02:03:14;;;;;;;18.58;17.15;;;11.70;99.90;;;12.44;88.28;98445.72;5199689;28;20267;-59
2022/05/10 02:05:56;;;;;;;18.35;17.00;;;11.70;99.90;;;12.47;87.57;98445.88;5208210;27;20191;-58
2022/05/10 02:08:35;;;;;;;18.23;16.83;;;11.70;99.90;;;12.48;87.14;98444.25;5192768;28;20221;-58
2022/05/10 02:11:12;;;;;;;18.95;17.45;;;11.70;99.90;;;12.42;87.80;98439.63;5190875;28;20245;-59
2022/05/10 02:13:54;;;;;;;18.30;16.80;;;11.60;99.90;;;12.36;87.79;98437.59;5193424;28;20285;-58
2022/05/10 02:16:34;;;;;;;18.58;17.15;;;11.50;99.90;;;12.41;87.89;98435.28;5191292;28;20234;-59
2022/05/10 02:19:17;;;;;;;17.23;15.82;;;11.60;99.90;;;12.40;87.56;98424.16;5193770;28;20202;-58
2022/05/10 02:21:55;;;;;;;19.17;17.77;;;11.60;99.90;;;12.40;87.45;98431.84;5193202;28;20654;-57
2022/05/10 02:24:32;;;;;;;17.83;16.42;;;11.60;99.90;;;12.37;87.04;98428.22;5186176;28;20305;-58
2022/05/10 02:27:10;;;;;;;18.08;16.58;;;11.50;99.90;;;12.34;88.11;98433.16;5189144;28;20612;-57
2022/05/10 02:29:47;;;;;;;18.15;16.77;;;11.50;99.90;;;12.21;87.57;98423.84;5193132;28;20218;-56
2022/05/10 02:35:18;;;;;;;17.42;16.10;;;11.40;99.90;;;12.03;87.87;98415.94;5195141;28;20198;-57
2022/05/10 02:37:51;;;;;;;18.58;17.08;;;11.30;99.90;;;11.95;88.10;98412.91;5191575;28;20198;-54
2022/05/10 02:40:24;;;;;;;18.10;16.73;;;11.20;99.90;;;11.99;87.85;98413.09;5197030;28;20309;-53
2022/05/10 02:42:58;;;;;;;18.25;16.77;;;11.20;99.90;;;11.98;88.17;98422.47;5193290;28;20254;-55
2022/05/10 02:45:31;;;;;;;18.08;16.77;;;11.20;99.90;;;11.95;88.37;98417.16;5197132;28;20237;-53
2022/05/10 02:48:05;;;;;;;18.80;17.42;;;11.20;99.90;;;11.95;88.62;98414.59;5188204;28;20226;-52
2022/05/10 02:50:40;;;;;;;18.15;16.75;;;11.20;99.90;;;11.99;88.64;98419.13;5194082;28;20681;-59
2022/05/10 02:53:13;;;;;;;17.70;16.30;;;11.20;99.90;;;12.03;88.95;98417.63;5205876;27;20197;-57
2022/05/10 02:55:54;;;;;;;19.05;17.55;;;11.20;99.90;;;12.06;89.17;98416.13;5181713;28;20291;-57
2022/05/10 02:58:32;;;;;;;17.88;16.58;;;11.20;99.90;;;12.05;88.71;98414.38;5191050;28;20221;-51
2022/05/10 03:01:15;;;;;;;17.75;16.42;;;11.20;99.90;;;12.03;88.19;98409.94;5193037;28;20657;-53
2022/05/10 03:03:48;;;;;;;18.08;16.70;;;11.10;99.90;;;11.93;88.87;98419.63;5200764;28;20215;-54
2022/05/10 03:06:27;;;;;;;17.92;16.55;;;11.10;99.90;;;11.97;88.22;98413.00;5194743;28;20210;-54
2022/05/10 03:09:01;;;;;;;16.33;15.05;;;11.10;99.90;;;11.90;87.76;98409.22;5189593;28;20198;-58
2022/05/10 03:11:35;;;;;;;18.17;16.67;;;11.10;99.90;;;11.85;87.51;98414.81;5195112;28;20226;-57
2022/05/10 03:14:10;;;;;;;17.40;16.00;;;11.00;99.90;;;11.85;87.32;98413.16;5195189;28;20202;-58
2022/05/10 03:16:43;;;;;;;16.65;15.45;;;11.00;99.90;;;11.84;87.30;98408.78;5193395;28;20206;-58
2022/05/10 03:19:17;;;;;;;17.67;16.38;;;11.00;99.90;;;11.81;86.49;98420.53;5199096;28;20632;-52
2022/05/10 03:21:52;;;;;;;17.80;16.40;;;10.90;99.90;;;11.84;86.37;98424.16;5192124;28;20226;-52
2022/05/10 03:24:25;;;;;;;17.25;15.85;;;10.80;99.90;;;11.88;85.68;98415.03;5191596;27;20290;-52
2022/05/10 03:26:59;;;;;;;17.30;16.00;;;10.90;99.90;;;11.81;85.75;98420.53;5197061;28;20597;-59
2022/05/10 03:29:33;;;;;;;16.92;15.73;;;10.90;99.90;;;11.76;86.04;98411.66;5200349;28;20249;-57
2022/05/10 03:32:07;;;;;;;17.10;15.70;;;10.80;99.90;;;11.72;86.48;98413.16;5192899;28;20201;-59
2022/05/10 03:34:57;;;;;;;16.77;15.32;;;10.80;99.90;;;11.68;86.61;98414.66;5187141;28;20194;-58
2022/05/10 03:37:32;;;;;;;16.90;15.70;;;10.70;99.90;;;11.62;86.63;98411.72;5186630;28;22176;-50
2022/05/10 03:40:08;;;;;;;16.83;15.63;;;10.70;99.90;;;11.52;86.56;98404.25;5194566;28;20709;-54
2022/05/10 03:42:45;;;;;;;17.63;16.23;;;10.70;99.90;;;11.51;86.91;98410.16;5195449;28;20206;-59
2022/05/10 03:45:22;;;;;;;17.30;15.90;;;10.60;99.90;;;11.45;87.23;98404.66;5196069;28;20217;-52
2022/05/10 03:47:56;;;;;;;18.33;16.92;;;10.50;99.90;;;11.44;86.75;98411.44;5194910;28;20254;-54
2022/05/10 03:50:29;;;;;;;18.05;16.55;;;10.60;99.90;;;11.42;87.18;98410.47;5195246;28;20700;-59
2022/05/10 03:53:04;;;;;;;17.42;16.10;;;10.60;99.90;;;11.43;87.58;98412.25;5220145;27;20190;-58
2022/05/10 03:55:37;;;;;;;18.17;16.85;;;10.60;99.90;;;11.41;88.62;98408.69;5238996;27;20293;-58
2022/05/10 03:58:12;;;;;;;18.73;17.42;;;10.60;99.90;;;11.44;87.28;98415.69;5235479;27;20654;-54
2022/05/10 04:00:46;;;;;;;18.63;17.13;;;10.60;99.90;;;11.50;87.56;98411.84;5191057;28;20290;-55
2022/05/10 04:03:19;;;;;;;18.45;17.15;;;10.70;99.90;;;11.48;87.32;98413.41;5184667;28;20279;-54
2022/05/10 04:05:52;;;;;;;17.80;16.50;;;10.60;99.90;;;11.51;87.48;98410.16;5194793;27;20206;-58
2022/05/10 04:08:27;;;;;;;19.35;17.75;;;10.60;99.90;;;11.48;87.79;98412.53;5197743;27;20213;-55
2022/05/10 04:11:02;;;;;;;20.20;18.60;;;10.60;99.90;;;11.55;88.24;98409.56;5195123;27;20746;-52
2022/05/10 04:13:44;;;;;;;20.67;19.05;;;10.80;99.90;;;11.61;88.59;98406.50;5195535;28;20201;-55
2022/05/10 04:16:17;;;;;;;20.48;18.88;;;10.90;99.90;;;11.62;89.49;98414.28;5187362;28;20197;-58
2022/05/10 04:18:51;;;;;;;19.92;18.42;;;10.90;99.90;;;11.69;89.34;98408.72;5195016;28;20683;-59
2022/05/10 04:21:24;;;;;;;18.33;17.02;;;10.90;99.90;;;11.72;89.15;98397.78;5196411;28;20218;-58
2022/05/10 04:23:58;;;;;;;21.05;19.45;;;11.00;99.90;;;11.73;88.91;98405.59;5247288;27;20260;-59
2022/05/10 04:26:31;;;;;;;19.05;17.50;;;11.00;99.90;;;11.66;88.58;98407.66;5191973;28;20292;-57
2022/05/10 04:29:04;;;;;;;19.75;18.17;;;10.90;99.90;;;11.67;88.85;98405.19;5198746;28;20230;-56
2022/05/10 04:31:37;;;;;;;20.20;18.80;;;10.90;99.90;;;11.73;88.87;98404.66;5189906;28;20262;-53
2022/05/10 04:34:11;;;;;;;19.80;18.40;;;11.00;99.90;;;11.80;87.97;98400.84;5197019;28;20248;-57
2022/05/10 04:36:44;;;;;;;21.40;19.70;;;11.00;99.90;;;11.91;88.77;98410.09;5197667;28;20591;-52
2022/05/10 04:39:19;;;;;;;20.75;19.23;;;11.10;99.90;;;11.99;88.51;98415.66;5192323;28;20233;-59
2022/05/10 04:41:53;;;;;;;20.40;18.70;;;11.20;99.90;;;12.03;88.27;98420.19;5198337;28;20220;-53
2022/05/10 04:44:26;;;;;;;18.95;17.45;;;11.20;99.90;;;12.08;87.98;98418.78;5199190;28;20308;-53
2022/05/10 04:46:59;;;;;;;18.20;16.70;;;11.20;99.90;;;12.14;86.25;98419.16;5198564;28;20236;-50
2022/05/10 04:49:32;;;;;;;17.85;16.50;;;11.20;99.90;;;12.14;85.46;98419.16;5198407;28;20249;-57
2022/05/10 04:52:06;;;;;;;18.85;17.35;;;11.10;99.90;;;12.16;85.45;98423.59;5200515;28;20547;-51
2022/05/10 04:54:40;;;;;;;19.10;17.42;;;11.20;99.90;;;12.12;86.54;98425.84;5199482;28;20233;-58
2022/05/10 04:57:13;;;;;;;19.35;17.85;;;11.30;99.90;;;12.15;86.81;98415.78;5197342;28;20205;-58
2022/05/10 04:59:46;;;;;;;19.65;18.15;;;11.30;99.90;;;12.22;87.28;98424.72;5200635;28;20633;-55
2022/05/10 05:02:20;;;;;;;18.95;17.55;;;11.40;99.90;;;12.26;86.38;98429.25;5202812;28;20202;-59
2022/05/10 05:04:53;;;;;;;19.92;18.33;;;11.40;99.90;;;12.38;86.87;98429.97;5201360;28;20616;-57
2022/05/10 05:07:26;;;;;;;19.80;18.30;;;11.50;99.90;;;12.39;86.13;98431.75;5203664;28;20294;-56
2022/05/10 05:10:02;;;;;;;18.83;17.42;;;11.50;99.90;;;12.50;85.36;98423.00;5202906;28;20230;-56
2022/05/10 05:12:35;;;;;;;18.38;16.88;;;11.60;99.90;;;12.66;85.55;98429.03;5203498;28;20202;-57
2022/05/10 05:15:12;;;;;;;18.30;16.80;;;11.70;99.90;;;12.94;85.53;98428.94;5202910;28;20239;-58
2022/05/10 05:17:51;;;;;;;18.50;17.10;;;12.10;99.90;;;13.51;83.29;98430.44;5203174;28;20210;-58
2022/05/10 05:20:24;;;;;;;18.65;17.23;;;12.70;99.90;;;14.19;80.84;98424.63;5203805;28;20224;-54
2022/05/10 05:22:57;;;;;;;17.30;16.05;;;13.30;99.90;;;14.85;76.95;98423.75;5203465;28;20279;-55
2022/05/10 05:25:31;;;;;;;16.70;15.50;;;13.80;99.90;;;15.38;74.29;98429.72;5203796;28;20312;-52
2022/05/10 05:28:06;;;;;;;16.48;15.30;;;14.30;99.90;;;15.52;73.00;98425.22;5201987;28;20266;-56
2022/05/10 05:30:42;;;;;;;16.08;14.85;;;14.50;99.90;;;15.95;70.85;98422.06;5202702;28;20228;-54
2022/05/10 05:33:15;;;;;;;16.08;14.88;;;14.80;99.90;;;16.49;68.35;98422.72;5203339;28;20283;-54
2022/05/10 05:35:48;;;;;;;16.35;15.25;;;15.20;99.90;;;16.84;67.36;98425.94;5203469;28;20202;-57
2022/05/10 05:38:24;;;;;;;17.25;15.95;;;15.50;99.90;;;17.08;65.72;98426.03;5203094;28;20712;-57
2022/05/10 05:40:58;;;;;;;17.05;15.75;;;15.50;99.90;;;17.20;65.99;98411.06;5203658;28;20217;-58
2022/05/10 05:43:31;;;;;;;16.58;15.20;;;15.80;99.90;;;17.49;65.18;98417.38;5201627;28;20296;-58
2022/05/10 05:46:05;;;;;;;18.23;16.85;;;15.90;99.90;;;17.32;65.73;98421.88;5199175;28;20233;-58
2022/05/10 05:48:38;;;;;;;16.38;15.15;;;15.90;99.90;;;17.71;63.83;98418.16;5202970;28;20236;-57
2022/05/10 05:51:11;;;;;;;15.90;14.70;;;16.20;99.90;;;18.01;62.73;98414.19;5202691;28;20230;-53
2022/05/10 05:53:44;;;;;;;16.45;15.05;;;16.50;99.90;;;18.25;61.85;98415.88;5200684;28;20237;-53
2022/05/10 05:56:19;;;;;;;15.90;14.75;;;16.60;99.90;;;18.59;60.97;98410.19;5203207;28;20198;-54
2022/05/10 05:58:52;;;;;;;16.77;15.57;;;16.80;99.90;;;18.64;60.55;98412.94;5200933;28;20708;-52
2022/05/10 06:01:25;;;;;;;16.63;15.43;;;17.10;99.90;;;18.87;59.45;98413.75;5202644;28;20733;-54
2022/05/10 06:03:58;;;;;;;16.23;14.98;;;17.00;99.90;;;19.04;59.83;98411.72;5202123;28;20197;-55
2022/05/10 06:06:31;;;;;;;16.67;15.27;;;17.20;99.90;;;19.22;58.61;98409.69;5197522;28;20210;-55
2022/05/10 06:09:04;;;;;;;16.05;14.73;;;17.30;99.90;;;19.48;58.35;98417.41;5198280;28;20199;-52
2022/05/10 06:11:39;;;;;;;16.52;15.43;;;17.40;99.90;;;19.74;57.89;98415.63;5201472;28;20213;-58
2022/05/10 06:14:12;;;;;;;16.02;14.82;;;17.70;99.90;;;19.98;57.43;98420.69;5200926;28;20232;-54
2022/05/10 06:16:46;;;;;;;15.18;14.07;;;17.90;99.90;;;20.26;56.38;98414.56;5202327;28;20289;-52
2022/05/10 06:19:20;;;;;;;15.45;14.45;;;18.10;99.90;;;20.55;55.65;98420.59;5193081;28;20248;-59
2022/05/10 06:21:53;;;;;;;15.55;14.35;;;18.30;99.90;;;21.11;54.12;98409.84;5198416;28;20212;-59
2022/05/10 06:24:26;;;;;;;15.40;14.20;;;18.70;99.90;;;21.19;53.67;98420.44;5195851;28;20190;-59
2022/05/10 06:27:02;;;;;;;15.10;14.00;;;18.90;99.90;;;21.00;54.83;98422.56;5202263;28;20229;-59
2022/05/10 06:29:36;;;;;;;14.50;13.25;;;19.00;99.90;;;21.56;52.95;98415.28;5200264;28;20778;-58
2022/05/10 06:32:11;;;;;;;14.20;13.15;;;19.40;99.90;;;21.89;52.34;98419.47;5201831;28;20765;-59
2022/05/10 06:34:44;;;;;;;14.50;13.45;;;19.70;99.90;;;22.23;51.27;98407.16;5197334;28;20204;-58
2022/05/10 06:40:13;;;;;;;14.70;13.63;;;20.20;99.20;;;22.79;49.82;98414.28;5202013;28;20221;-59
2022/05/10 06:42:47;;;;;;;13.90;13.00;;;20.50;98.90;;;23.03;48.95;98413.84;5199351;28;20214;-59
2022/05/10 06:45:20;;;;;;;13.80;12.80;;;20.80;98.10;;;23.33;48.41;98414.34;5194536;28;20211;-57
2022/05/10 06:47:54;;;;;;;14.40;13.32;;;21.00;97.90;;;23.23;48.33;98411.56;5201245;28;20201;-53
2022/05/10 06:50:27;;;;;;;13.60;12.60;;;21.00;97.50;;;23.23;48.36;98415.03;5202400;28;20228;-60
2022/05/10 06:53:01;;;;;;;15.57;14.35;;;21.00;97.50;;;23.22;48.39;98415.91;5194339;28;20198;-60
2022/05/10 06:55:36;;;;;;;13.27;12.23;;;21.00;97.30;;;23.12;48.92;98409.69;5201905;28;20661;-60
2022/05/10 06:58:11;;;;;;;14.30;13.23;;;20.90;97.60;;;23.14;48.67;98401.88;5202204;28;20190;-59
2022/05/10 07:00:44;;;;;;;13.88;12.98;;;21.10;97.30;;;23.37;48.10;98404.81;5202179;28;20260;-60
2022/05/10 07:03:25;;;;;;;13.50;12.60;;;21.20;97.00;;;23.78;46.58;98402.84;5198804;28;20611;-60
2022/05/10 07:06:08;;;;;;;12.90;12.10;;;21.60;96.20;;;23.79;46.58;98404.59;5214454;28;20619;-58
2022/05/10 07:08:41;;;;;;;12.30;11.40;;;21.70;96.10;;;24.02;46.84;98406.63;5224921;28;20197;-57
2022/05/10 07:11:14;;;;;;;12.85;11.95;;;21.80;95.70;;;24.24;45.84;98403.41;5201998;28;20229;-59
2022/05/10 07:13:49;;;;;;;12.38;11.57;;;22.10;95.20;;;24.31;45.46;98406.09;5200860;28;20404;-59
2022/05/10 07:16:22;;;;;;;12.25;11.45;;;22.10;95.10;;;24.36;45.39;98401.81;5196881;28;20202;-58
2022/05/10 07:18:55;;;;;;;12.10;11.27;;;22.30;95.00;;;24.65;45.18;98405.63;5200833;28;20205;-59
2022/05/10 07:21:28;;;;;;;12.65;11.75;;;22.60;94.40;;;24.71;45.72;98410.91;5200799;28;20217;-54
2022/05/10 07:24:02;;;;;;;13.43;12.30;;;22.80;94.60;;;25.00;44.72;98402.44;5190571;28;20737;-51
2022/05/10 07:26:35;;;;;;;12.50;11.60;;;23.00;94.00;;;25.33;43.43;98395.75;5199966;28;20308;-55
2022/05/10 07:29:09;;;;;;;12.73;11.82;;;23.20;93.60;;;25.59;43.65;98401.16;5193557;28;20203;-52
2022/05/10 07:31:43;;;;;;;13.10;12.20;;;23.20;93.70;;;25.62;43.24;98399.44;5196186;28;20232;-59
2022/05/10 07:34:16;;;;;;;13.15;12.25;;;23.30;93.80;;;25.83;43.04;98392.59;5200434;28;20410;-59
2022/05/10 07:36:49;;;;;;;12.85;11.85;;;23.40;93.80;;;25.96;42.85;98394.41;5200508;28;20257;-60
2022/05/10 07:39:23;;;;;;;11.65;10.80;;;23.60;93.50;;;26.29;42.31;98403.25;5199790;28;20201;-52
2022/05/10 07:41:58;;;;;;;11.52;10.73;;;23.80;93.20;;;26.48;42.36;98398.94;5201082;28;20220;-56
2022/05/10 07:44:34;;;;;;;12.18;11.38;;;24.10;93.00;;;26.56;42.39;98401.63;5200900;28;20189;-51
2022/05/10 07:47:09;;;;;;;11.85;10.70;;;24.30;92.90;;;26.57;41.49;98406.84;5206534;28;20286;-60
2022/05/10 07:49:42;;;;;;;12.30;11.40;;;24.30;92.30;;;26.48;42.42;98406.81;5215573;28;20225;-55
2022/05/10 07:52:17;;;;;;;11.93;11.02;;;24.30;92.80;;;26.98;41.85;98397.28;5188158;28;20755;-55
2022/05/10 07:54:50;;;;;;;11.70;10.80;;;24.50;92.60;;;27.23;41.38;98392.94;5201398;28;20292;-53
2022/05/10 07:57:23;;;;;;;11.57;10.68;;;25.00;92.00;;;27.46;41.04;98396.38;5200966;28;20197;-56
2022/05/10 07:59:58;;;;;;;11.23;10.50;;;25.20;91.90;;;27.36;40.82;98398.16;5197108;28;20226;-56
2022/05/10 08:02:31;;;;;;;10.95;10.20;;;25.10;91.40;;;27.28;40.67;98394.66;5195522;28;20203;-54
2022/05/10 08:05:06;;;;;;;11.50;10.70;;;25.10;91.50;;;26.85;42.03;98392.03;5204337;28;20212;-56
2022/05/10 08:07:40;;;;;;;10.55;9.75;;;24.90;92.00;;;27.05;42.03;98396.41;5204616;28;20221;-58
2022/05/10 08:10:13;;;;;;;10.52;9.73;;;25.10;91.70;;;26.94;42.22;98389.41;5203482;28;20217;-52
2022/05/10 08:12:47;;;;;;;11.30;10.50;;;25.10;92.00;;;27.05;42.26;98385.91;5204109;28;20227;-56
2022/05/10 08:15:21;;;;;;;10.50;9.75;;;25.40;91.60;;;27.19;42.27;98384.19;5196456;28;20288;-55
2022/05/10 08:17:54;;;;;;;11.98;11.18;;;25.50;91.50;;;27.33;41.06;98382.41;5201786;28;20197;-59
2022/05/10 08:20:27;;;;;;;11.40;10.60;;;25.70;90.90;;;27.42;41.29;98380.66;5197541;28;20308;-56
2022/05/10 08:23:00;;;;;;;11.38;10.45;;;25.90;90.80;;;27.49;41.33;98387.63;5200814;28;20226;-56
2022/05/10 08:25:33;;;;;;;9.93;9.32;;;26.00;90.50;;;27.72;40.96;98388.44;5204501;28;20237;-54
2022/05/10 08:28:13;;;;;;;10.38;9.70;;;26.00;90.50;;;27.91;40.19;98381.41;5202210;28;20248;-53
2022/05/10 08:30:48;;;;;;;11.15;10.30;;;26.40;90.10;;;27.65;40.51;98384.09;5200091;28;20217;-56
2022/05/10 08:33:23;;;;;;;10.18;9.40;;;26.40;89.70;;;27.60;41.07;98385.84;5196982;28;20197;-52
2022/05/10 08:35:58;;;;;;;10.50;9.90;;;26.10;90.00;;;27.57;40.72;98391.13;5201644;28;20196;-54
2022/05/10 08:38:32;;;;;;;9.93;9.32;;;26.40;88.70;;;27.18;41.37;98379.78;5203662;28;20289;-54
2022/05/10 08:41:11;;;;;;;10.45;9.55;;;26.00;90.00;;;27.63;40.24;98380.59;5204024;28;20232;-53
2022/05/10 08:43:49;;;;;;;9.45;8.77;;;26.10;89.00;;;27.82;39.55;98381.47;5204252;28;20711;-52
2022/05/10 08:46:29;;;;;;;9.52;8.82;;;26.40;88.40;;;27.96;38.94;98376.16;5201639;28;20209;-59
2022/05/10 08:49:05;;;;;;;9.13;8.52;;;26.70;86.50;;;28.03;38.67;98368.22;5204042;28;20204;-58
2022/05/10 08:51:38;;;;;;;9.60;8.85;;;26.80;85.80;;;28.10;39.13;98369.09;5203865;28;20225;-55
2022/05/10 08:54:11;;;;;;;8.18;7.57;;;26.80;86.30;;;28.23;38.83;98376.00;5200165;28;20209;-55
2022/05/10 08:56:48;;;;;;;9.10;8.30;;;26.80;86.30;;;28.20;38.30;98365.50;5200161;28;20198;-55
2022/05/10 08:59:33;;;;;;;9.20;8.60;;;27.00;86.00;;;28.30;38.89;98361.94;5192130;28;20247;-53
2022/05/10 09:02:13;;;;;;;8.70;8.07;;;27.00;86.00;;;28.26;38.29;98365.47;5201144;28;20229;-53
2022/05/10 09:04:52;;;;;;;9.13;8.35;;;26.80;84.70;;;28.13;38.87;98361.19;5204096;28;20201;-57
2022/05/10 09:07:35;;;;;;;8.73;8.02;;;27.10;85.20;;;28.19;38.17;98361.13;5202844;28;20270;-55
2022/05/10 09:10:14;;;;;;;8.73;7.93;;;27.10;84.60;;;28.34;38.14;98367.19;5203656;28;20246;-56
2022/05/10 09:12:58;;;;;;;8.27;7.78;;;27.30;84.70;;;28.54;37.82;98359.22;5203909;28;20205;-55
2022/05/10 09:15:36;;;;;;;7.63;6.93;;;27.50;83.20;;;28.60;36.03;98362.66;5203491;28;20236;-54
2022/05/10 09:18:20;;;;;;;6.72;6.32;;;27.40;80.00;;;28.47;34.93;98350.47;5201035;28;20205;-52
2022/05/10 09:21:06;;;;;;;7.65;7.18;;;27.40;78.70;;;28.49;34.05;98354.84;5196446;28;20700;-54
2022/05/10 09:23:46;;;;;;;6.65;6.15;;;27.30;77.80;;;28.54;34.25;98360.06;5199101;28;20296;-53
2022/05/10 09:26:23;;;;;;;6.25;5.85;;;27.40;76.00;;;28.72;31.72;98352.03;5201249;28;20209;-54
2022/05/10 09:29:06;;;;;;;6.10;5.65;;;27.70;72.40;;;28.40;30.64;98346.09;5203530;28;20205;-55
2022/05/10 09:34:50;;;;;;;5.97;5.63;;;27.30;70.60;;;28.36;31.06;98357.50;5202070;28;20201;-52
2022/05/10 09:37:27;;;;;;;7.25;6.25;;;27.40;69.90;;;28.21;32.48;98347.97;5199344;28;20734;-54
2022/05/10 09:40:08;;;;;;;6.40;5.90;;;27.30;72.50;;;28.37;29.71;98349.63;5196782;28;20256;-53
2022/05/10 09:42:44;;;;;;;5.75;5.35;;;27.50;67.30;;;28.25;30.48;98349.72;5203070;28;20237;-57
2022/05/10 09:45:21;;;;;;;6.68;6.07;;;27.50;67.80;;;28.22;30.27;98358.50;5203692;28;20201;-54
2022/05/10 09:47:58;;;;;;;6.25;5.85;;;27.40;67.50;;;28.07;29.67;98348.94;5201137;28;20719;-53
2022/05/10 09:50:37;;;;;;;6.47;5.97;;;27.30;66.00;;;27.95;30.09;98348.97;5199553;28;20585;-53
2022/05/10 09:53:20;;;;;;;5.88;5.47;;;27.10;67.50;;;27.92;30.83;98342.88;5185893;28;20204;-53
2022/05/10 09:56:00;;;;;;;6.43;5.95;;;27.30;67.80;;;27.68;31.78;98346.44;5197415;28;20220;-56
2022/05/10 09:58:36;;;;;;;6.30;5.90;;;27.00;69.30;;;27.58;31.88;98341.19;5190109;28;20201;-56
2022/05/10 10:01:12;;;;;;;6.47;5.97;;;26.80;69.60;;;27.72;32.23;98337.66;5199680;28;20248;-54
2022/05/10 10:03:47;;;;;;;6.15;5.75;;;26.90;69.60;;;27.63;31.58;98328.06;5202566;28;20266;-55
2022/05/10 10:06:23;;;;;;;6.18;5.75;;;27.00;68.80;;;27.57;30.49;98334.19;5194017;28;20220;-55
2022/05/10 10:08:58;;;;;;;5.88;5.32;;;27.10;66.50;;;27.54;31.52;98334.22;5195435;28;20201;-53
2022/05/10 10:11:34;;;;;;;5.32;4.93;;;27.00;68.40;;;27.50;30.74;98336.84;5203025;28;20262;-54
2022/05/10 10:14:10;;;;;;;4.97;4.68;;;26.80;66.80;;;27.65;29.26;98338.56;5193243;28;20198;-54
2022/05/10 10:16:49;;;;;;;5.07;4.70;;;27.00;64.50;;;27.23;29.15;98328.16;5202075;28;20193;-55
2022/05/10 10:19:36;;;;;;;5.20;4.90;;;26.60;64.00;;;27.42;28.86;98328.13;5200570;28;20252;-52
2022/05/10 10:22:14;;;;;;;5.32;4.93;;;26.80;63.70;;;27.27;30.55;98324.66;5193407;28;20204;-55
2022/05/10 10:24:56;;;;;;;5.40;5.00;;;26.70;65.60;;;27.12;31.31;98322.03;5196605;28;20202;-54
2022/05/10 10:27:36;;;;;;;6.00;5.50;;;26.50;66.60;;;27.21;32.31;98324.66;5198503;28;20229;-53
2022/05/10 10:30:22;;;;;;;6.20;5.55;;;26.50;69.00;;;27.26;32.52;98322.91;5191560;28;20225;-54
2022/05/10 10:33:03;;;;;;;5.93;5.55;;;26.50;69.30;;;27.27;32.69;98311.53;5195743;28;20233;-57
2022/05/10 10:35:42;;;;;;;6.22;5.78;;;26.60;70.10;;;27.27;33.69;98303.66;5194200;28;20208;-55
2022/05/10 10:38:23;;;;;;;6.25;5.75;;;26.50;71.50;;;27.27;33.63;98305.41;5201352;28;20622;-53
2022/05/10 10:41:01;;;;;;;5.32;5.03;;;26.50;70.90;;;27.46;34.56;98306.22;5201682;28;20795;-55
2022/05/10 10:43:48;;;;;;;6.18;5.68;;;26.70;73.20;;;27.57;33.71;98307.94;5196366;27;20205;-55
2022/05/10 10:46:27;;;;;;;6.38;5.82;;;26.80;71.50;;;27.49;33.70;98309.72;5199852;28;20197;-59
2022/05/10 10:49:08;;;;;;;5.50;5.13;;;26.60;71.30;;;27.37;33.13;98299.25;5193322;28;20312;-54
2022/05/10 10:51:42;;;;;;;5.38;5.05;;;26.30;72.50;;;27.28;34.26;98294.91;5197574;28;20656;-57
2022/05/10 10:54:21;;;;;;;6.00;5.57;;;26.30;74.10;;;27.22;32.93;98294.06;5201210;28;20293;-52